createdAt,value
2023-01-12T00:00:29.657Z,97238.72
2023-01-12T00:01:32.032Z,97241.47
2023-01-12T00:02:34.013Z,97247.31
2023-01-12T00:03:35.823Z,97252.59
2023-01-12T00:04:37.862Z,97257.25
2023-01-12T00:05:39.679Z,97244.34
2023-01-12T00:06:42.083Z,97240.63
2023-01-12T00:07:43.918Z,97232.06
2023-01-12T00:08:46.344Z,97229.97
2023-01-12T00:09:48.318Z,97234.81
2023-01-12T00:10:50.086Z,97230.16
2023-01-12T00:11:51.872Z,97237.13
2023-01-12T00:12:53.706Z,97239.38
2023-01-12T00:13:55.531Z,97233.09
2023-01-12T00:14:57.352Z,97236.34
2023-01-12T00:16:21.680Z,97233.59
2023-01-12T00:17:23.489Z,97229.53
2023-01-12T00:18:25.258Z,97235.69
2023-01-12T00:19:27.060Z,97241.50
2023-01-12T00:20:28.972Z,97241.16
2023-01-12T00:21:35.955Z,97238.44
2023-01-12T00:22:37.808Z,97239.75
2023-01-12T00:23:39.805Z,97242.16
2023-01-12T00:24:44.180Z,97237.81
2023-01-12T00:25:50.615Z,97239.44
2023-01-12T00:26:53.044Z,97227.47
2023-01-12T00:27:54.975Z,97232.97
2023-01-12T00:28:56.775Z,97232.31
2023-01-12T00:29:58.622Z,97234.91
2023-01-12T00:31:01.316Z,97235.06
2023-01-12T00:32:04.679Z,97237.63
2023-01-12T00:33:06.509Z,97232.31
2023-01-12T00:34:08.452Z,97235.38
2023-01-12T00:35:10.284Z,97232.63
2023-01-12T00:36:14.113Z,97240.25
2023-01-12T00:37:16.148Z,97236.66
2023-01-12T00:38:18.722Z,97232.47
2023-01-12T00:39:21.724Z,97235.06
2023-01-12T00:40:23.590Z,97241.19
2023-01-12T00:41:43.892Z,97246.38
2023-01-12T00:43:04.285Z,97243.47
2023-01-12T00:44:24.733Z,97243.13
2023-01-12T00:45:26.651Z,97242.03
2023-01-12T00:46:33.733Z,97243.78
2023-01-12T00:47:35.684Z,97249.94
2023-01-12T00:48:37.516Z,97235.38
2023-01-12T00:49:41.348Z,97241.22
2023-01-12T00:50:43.223Z,97248.00
2023-01-12T00:51:45.059Z,97248.66
2023-01-12T00:52:46.842Z,97253.19
2023-01-12T00:53:48.661Z,97257.56
2023-01-12T00:54:50.467Z,97251.72
2023-01-12T00:55:52.397Z,97244.28
2023-01-12T00:56:54.208Z,97246.38
2023-01-12T00:57:56.973Z,97256.06
2023-01-12T00:58:58.837Z,97258.16
2023-01-12T01:00:00.666Z,97264.44
2023-01-12T01:01:09.088Z,97262.84
2023-01-12T01:02:11.909Z,97266.38
2023-01-12T01:03:13.713Z,97269.16
2023-01-12T01:04:15.587Z,97276.91
2023-01-12T01:05:18.192Z,97270.09
2023-01-12T01:06:20.008Z,97272.81
2023-01-12T01:07:24.637Z,97273.63
2023-01-12T01:08:26.442Z,97270.75
2023-01-12T01:09:28.358Z,97269.47
2023-01-12T01:10:30.175Z,97273.69
2023-01-12T01:11:32.474Z,97265.09
2023-01-12T01:12:34.355Z,97266.72
2023-01-12T01:13:41.064Z,97267.88
2023-01-12T01:14:42.992Z,97264.44
2023-01-12T01:15:44.803Z,97274.63
2023-01-12T01:16:46.693Z,97271.09
2023-01-12T01:17:48.567Z,97269.00
2023-01-12T01:18:50.455Z,97269.63
2023-01-12T01:19:52.286Z,97278.38
2023-01-12T01:20:54.252Z,97275.94
2023-01-12T01:21:56.009Z,97275.78
2023-01-12T01:22:57.821Z,97269.63
2023-01-12T01:23:59.987Z,97273.84
2023-01-12T01:25:02.096Z,97278.53
2023-01-12T01:26:08.363Z,97287.41
2023-01-12T01:27:10.145Z,97292.09
2023-01-12T01:28:11.936Z,97286.91
2023-01-12T01:29:14.015Z,97278.19
2023-01-12T01:30:16.049Z,97276.41
2023-01-12T01:31:20.677Z,97281.59
2023-01-12T01:32:22.508Z,97285.47
2023-01-12T01:33:24.272Z,97293.88
2023-01-12T01:34:26.173Z,97292.88
2023-01-12T01:35:28.015Z,97291.59
2023-01-12T01:36:29.811Z,97291.59
2023-01-12T01:37:31.715Z,97285.47
2023-01-12T01:38:34.101Z,97283.69
2023-01-12T01:39:36.133Z,97286.91
2023-01-12T01:40:42.266Z,97294.03
2023-01-12T01:41:44.136Z,97302.75
2023-01-12T01:42:46.027Z,97305.50
2023-01-12T01:44:01.503Z,97305.34
2023-01-12T01:45:04.801Z,97307.44
2023-01-12T01:46:09.516Z,97310.03
2023-01-12T01:47:17.546Z,97321.03
2023-01-12T01:48:19.546Z,97315.38
2023-01-12T01:49:27.562Z,97313.44
2023-01-12T01:50:35.673Z,97315.09
2023-01-12T01:51:37.538Z,97319.13
2023-01-12T01:52:42.013Z,97325.09
2023-01-12T01:53:45.694Z,97319.78
2023-01-12T01:54:52.556Z,97327.22
2023-01-12T01:55:59.378Z,97323.66
2023-01-12T01:57:01.358Z,97314.13
2023-01-12T01:58:14.975Z,97326.13
2023-01-12T01:59:21.113Z,97325.59
2023-01-12T02:00:24.259Z,97325.75
2023-01-12T02:01:26.790Z,97327.53
2023-01-12T02:02:28.983Z,97321.72
2023-01-12T02:03:34.051Z,97313.59
2023-01-12T02:04:38.432Z,97308.25
2023-01-12T02:05:42.079Z,97303.72
2023-01-12T02:06:44.317Z,97305.94
2023-01-12T02:07:46.655Z,97306.13
2023-01-12T02:08:48.360Z,97317.09
2023-01-12T02:09:50.151Z,97326.31
2023-01-12T02:10:52.590Z,97329.72
2023-01-12T02:12:13.663Z,97341.38
2023-01-12T02:13:34.268Z,97341.88
2023-01-12T02:14:54.342Z,97341.72
2023-01-12T02:16:21.378Z,97347.53
2023-01-12T02:17:26.163Z,97350.63
2023-01-12T02:18:33.502Z,97333.84
2023-01-12T02:19:35.248Z,97337.88
2023-01-12T02:20:48.747Z,97334.31
2023-01-12T02:21:53.223Z,97329.00
2023-01-12T02:23:13.353Z,97332.38
2023-01-12T02:24:21.334Z,97321.88
2023-01-12T02:25:29.277Z,97315.91
2023-01-12T02:26:49.736Z,97320.09
2023-01-12T02:28:14.156Z,97312.34
2023-01-12T02:29:21.676Z,97311.41
2023-01-12T02:30:23.428Z,97306.38
2023-01-12T02:31:43.633Z,97303.63
2023-01-12T02:32:45.410Z,97301.84
2023-01-12T02:33:58.966Z,97307.81
2023-01-12T02:35:09.589Z,97308.16
2023-01-12T02:36:31.572Z,97304.13
2023-01-12T02:37:42.402Z,97303.47
2023-01-12T02:38:44.122Z,97296.81
2023-01-12T02:40:02.137Z,97292.28
2023-01-12T02:41:10.009Z,97301.69
2023-01-12T02:42:30.219Z,97304.88
2023-01-12T02:43:33.866Z,97310.53
2023-01-12T02:44:54.024Z,97307.78
2023-01-12T02:45:55.892Z,97314.72
2023-01-12T02:46:58.914Z,97307.75
2023-01-12T02:48:15.481Z,97317.09
2023-01-12T02:49:19.241Z,97325.78
2023-01-12T02:50:32.477Z,97326.09
2023-01-12T02:51:52.535Z,97332.06
2023-01-12T02:52:58.049Z,97331.94
2023-01-12T02:54:02.041Z,97337.56
2023-01-12T02:55:05.029Z,97334.84
2023-01-12T02:56:08.164Z,97333.91
2023-01-12T02:57:11.286Z,97335.22
2023-01-12T02:58:15.042Z,97332.94
2023-01-12T02:59:36.994Z,97332.66
2023-01-12T03:00:40.502Z,97340.75
2023-01-12T03:01:43.920Z,97341.25
2023-01-12T03:02:45.918Z,97344.81
2023-01-12T03:03:49.097Z,97344.31
2023-01-12T03:04:51.228Z,97348.50
2023-01-12T03:05:55.649Z,97341.56
2023-01-12T03:06:57.401Z,97342.22
2023-01-12T03:08:00.649Z,97334.16
2023-01-12T03:09:02.463Z,97336.72
2023-01-12T03:10:13.607Z,97342.88
2023-01-12T03:11:16.782Z,97331.53
2023-01-12T03:12:21.344Z,97334.25
2023-01-12T03:13:24.150Z,97331.34
2023-01-12T03:14:27.551Z,97326.03
2023-01-12T03:15:29.936Z,97338.63
2023-01-12T03:16:34.835Z,97339.09
2023-01-12T03:17:40.849Z,97337.78
2023-01-12T03:18:51.264Z,97328.25
2023-01-12T03:19:54.711Z,97322.94
2023-01-12T03:21:00.327Z,97333.94
2023-01-12T03:22:08.071Z,97333.78
2023-01-12T03:23:13.025Z,97332.00
2023-01-12T03:24:16.061Z,97336.03
2023-01-12T03:25:18.714Z,97324.38
2023-01-12T03:26:23.505Z,97329.06
2023-01-12T03:27:28.547Z,97330.19
2023-01-12T03:28:34.918Z,97327.44
2023-01-12T03:29:41.347Z,97327.94
2023-01-12T03:30:50.363Z,97332.28
2023-01-12T03:31:52.739Z,97329.72
2023-01-12T03:32:54.554Z,97324.25
2023-01-12T03:33:56.369Z,97322.31
2023-01-12T03:34:59.048Z,97323.78
2023-01-12T03:36:07.031Z,97318.31
2023-01-12T03:37:08.897Z,97315.38
2023-01-12T03:38:24.929Z,97321.22
2023-01-12T03:39:26.758Z,97328.81
2023-01-12T03:40:32.805Z,97320.72
2023-01-12T03:41:56.688Z,97317.31
2023-01-12T03:42:58.611Z,97317.66
2023-01-12T03:44:04.096Z,97320.53
2023-01-12T03:45:30.615Z,97320.53
2023-01-12T03:46:36.882Z,97329.75
2023-01-12T03:47:40.981Z,97327.34
2023-01-12T03:48:58.500Z,97324.75
2023-01-12T03:50:06.572Z,97324.56
2023-01-12T03:51:40.628Z,97330.09
2023-01-12T03:52:43.509Z,97338.16
2023-01-12T03:53:49.534Z,97340.75
2023-01-12T03:54:52.359Z,97335.56
2023-01-12T03:55:56.643Z,97337.19
2023-01-12T03:56:58.646Z,97338.00
2023-01-12T03:58:01.093Z,97333.63
2023-01-12T03:59:03.703Z,97340.59
2023-01-12T04:00:10.787Z,97339.47
2023-01-12T04:01:13.066Z,97340.13
2023-01-12T04:02:14.948Z,97337.22
2023-01-12T04:03:17.146Z,97332.72
2023-01-12T04:04:20.400Z,97340.16
2023-01-12T04:05:22.367Z,97349.53
2023-01-12T04:06:24.233Z,97343.38
2023-01-12T04:07:26.158Z,97338.88
2023-01-12T04:08:28.402Z,97337.41
2023-01-12T04:09:30.279Z,97342.06
2023-01-12T04:10:32.285Z,97341.41
2023-01-12T04:11:52.752Z,97343.28
2023-01-12T04:12:54.592Z,97342.50
2023-01-12T04:13:56.931Z,97343.44
2023-01-12T04:14:59.341Z,97339.41
2023-01-12T04:16:01.167Z,97336.00
2023-01-12T04:17:02.970Z,97339.25
2023-01-12T04:18:05.157Z,97341.84
2023-01-12T04:19:07.002Z,97338.13
2023-01-12T04:20:09.857Z,97341.38
2023-01-12T04:21:31.698Z,97344.59
2023-01-12T04:22:45.570Z,97347.50
2023-01-12T04:23:47.386Z,97345.72
2023-01-12T04:24:49.387Z,97340.25
2023-01-12T04:25:51.209Z,97345.91
2023-01-12T04:26:53.010Z,97344.63
2023-01-12T04:28:02.663Z,97348.06
2023-01-12T04:29:04.573Z,97332.84
2023-01-12T04:30:06.991Z,97337.34
2023-01-12T04:31:09.826Z,97345.63
2023-01-12T04:32:12.122Z,97352.09
2023-01-12T04:33:14.043Z,97353.69
2023-01-12T04:34:15.828Z,97353.69
2023-01-12T04:35:17.922Z,97351.28
2023-01-12T04:36:19.798Z,97347.72
2023-01-12T04:37:21.867Z,97350.16
2023-01-12T04:38:23.824Z,97350.81
2023-01-12T04:39:25.574Z,97356.00
2023-01-12T04:40:27.407Z,97357.13
2023-01-12T04:41:29.208Z,97352.91
2023-01-12T04:42:49.614Z,97362.94
2023-01-12T04:43:51.456Z,97365.34
2023-01-12T04:44:53.304Z,97361.81
2023-01-12T04:45:55.291Z,97355.84
2023-01-12T04:46:57.110Z,97347.25
2023-01-12T04:48:05.961Z,97350.00
2023-01-12T04:49:07.957Z,97357.72
2023-01-12T04:50:10.049Z,97352.69
2023-01-12T04:51:12.360Z,97345.44
2023-01-12T04:52:14.190Z,97351.75
2023-01-12T04:53:16.453Z,97353.03
2023-01-12T04:54:18.360Z,97353.69
2023-01-12T04:55:20.263Z,97357.28
2023-01-12T04:56:22.120Z,97361.28
2023-01-12T04:57:24.497Z,97358.69
2023-01-12T04:58:26.307Z,97362.91
2023-01-12T04:59:29.519Z,97354.00
2023-01-12T05:00:31.349Z,97355.28
2023-01-12T05:01:33.473Z,97349.59
2023-01-12T05:02:35.372Z,97340.38
2023-01-12T05:03:37.375Z,97351.16
2023-01-12T05:04:39.269Z,97351.81
2023-01-12T05:05:41.559Z,97356.53
2023-01-12T05:06:43.439Z,97351.19
2023-01-12T05:08:03.713Z,97353.50
2023-01-12T05:09:24.002Z,97348.16
2023-01-12T05:10:25.841Z,97351.41
2023-01-12T05:11:28.774Z,97348.69
2023-01-12T05:12:30.729Z,97346.91
2023-01-12T05:13:32.523Z,97351.41
2023-01-12T05:14:34.370Z,97352.22
2023-01-12T05:15:36.161Z,97342.66
2023-01-12T05:16:38.143Z,97347.84
2023-01-12T05:17:40.049Z,97346.09
2023-01-12T05:18:42.586Z,97350.44
2023-01-12T05:19:44.377Z,97354.50
2023-01-12T05:20:46.260Z,97352.06
2023-01-12T05:21:48.153Z,97351.69
2023-01-12T05:22:51.924Z,97358.94
2023-01-12T05:23:53.834Z,97360.41
2023-01-12T05:24:55.846Z,97363.78
2023-01-12T05:26:01.254Z,97360.41
2023-01-12T05:27:03.117Z,97366.38
2023-01-12T05:28:05.219Z,97357.16
2023-01-12T05:29:07.054Z,97355.53
2023-01-12T05:30:09.230Z,97351.00
2023-01-12T05:31:12.020Z,97353.44
2023-01-12T05:32:13.948Z,97366.88
2023-01-12T05:33:16.763Z,97357.19
2023-01-12T05:34:20.069Z,97358.81
2023-01-12T05:35:21.997Z,97359.78
2023-01-12T05:36:26.367Z,97353.63
2023-01-12T05:37:29.272Z,97355.56
2023-01-12T05:38:31.306Z,97351.00
2023-01-12T05:39:33.287Z,97361.16
2023-01-12T05:40:35.076Z,97354.16
2023-01-12T05:41:36.898Z,97352.56
2023-01-12T05:42:57.395Z,97351.91
2023-01-12T05:43:59.232Z,97349.31
2023-01-12T05:45:01.050Z,97351.72
2023-01-12T05:46:05.947Z,97352.72
2023-01-12T05:47:07.724Z,97358.03
2023-01-12T05:48:09.971Z,97363.34
2023-01-12T05:49:11.895Z,97350.41
2023-01-12T05:50:13.694Z,97344.97
2023-01-12T05:51:16.074Z,97343.03
2023-01-12T05:52:17.868Z,97353.50
2023-01-12T05:53:19.775Z,97362.25
2023-01-12T05:54:21.779Z,97367.41
2023-01-12T05:55:23.704Z,97380.03
2023-01-12T05:56:26.779Z,97374.72
2023-01-12T05:57:32.030Z,97369.38
2023-01-12T05:58:34.258Z,97364.56
2023-01-12T05:59:36.396Z,97368.59
2023-01-12T06:00:38.194Z,97367.50
2023-01-12T06:01:41.063Z,97367.50
2023-01-12T06:02:42.959Z,97364.91
2023-01-12T06:03:48.315Z,97374.59
2023-01-12T06:04:50.320Z,97364.56
2023-01-12T06:05:52.982Z,97368.56
2023-01-12T06:06:54.845Z,97371.13
2023-01-12T06:07:56.635Z,97372.91
2023-01-12T06:08:59.317Z,97374.84
2023-01-12T06:10:01.211Z,97372.91
2023-01-12T06:11:03.463Z,97367.59
2023-01-12T06:12:24.400Z,97367.28
2023-01-12T06:13:44.634Z,97369.59
2023-01-12T06:14:46.478Z,97366.84
2023-01-12T06:15:48.240Z,97379.44
2023-01-12T06:16:50.093Z,97375.56
2023-01-12T06:17:51.907Z,97381.03
2023-01-12T06:18:53.692Z,97374.25
2023-01-12T06:19:55.476Z,97372.63
2023-01-12T06:20:59.835Z,97363.25
2023-01-12T06:22:01.622Z,97360.66
2023-01-12T06:23:05.320Z,97354.81
2023-01-12T06:24:07.284Z,97364.22
2023-01-12T06:25:09.382Z,97375.38
2023-01-12T06:26:12.372Z,97387.78
2023-01-12T06:27:14.188Z,97374.19
2023-01-12T06:28:16.944Z,97374.19
2023-01-12T06:29:18.881Z,97364.38
2023-01-12T06:30:20.822Z,97373.59
2023-01-12T06:31:22.701Z,97370.06
2023-01-12T06:32:24.540Z,97378.09
2023-01-12T06:33:26.955Z,97376.50
2023-01-12T06:34:34.939Z,97369.16
2023-01-12T06:35:36.846Z,97368.38
2023-01-12T06:36:39.212Z,97381.94
2023-01-12T06:37:41.165Z,97378.25
2023-01-12T06:38:43.574Z,97390.72
2023-01-12T06:39:45.328Z,97396.56
2023-01-12T06:40:47.285Z,97397.88
2023-01-12T06:42:07.775Z,97395.09
2023-01-12T06:43:09.666Z,97399.19
2023-01-12T06:44:11.498Z,97388.53
2023-01-12T06:45:13.213Z,97381.41
2023-01-12T06:46:15.115Z,97385.78
2023-01-12T06:47:17.085Z,97382.41
2023-01-12T06:48:21.515Z,97395.63
2023-01-12T06:49:23.416Z,97384.94
2023-01-12T06:50:25.411Z,97387.53
2023-01-12T06:51:27.379Z,97377.47
2023-01-12T06:52:30.380Z,97382.94
2023-01-12T06:53:32.314Z,97392.09
2023-01-12T06:54:34.104Z,97383.81
2023-01-12T06:55:35.947Z,97392.03
2023-01-12T06:56:37.810Z,97395.72
2023-01-12T06:57:39.585Z,97378.09
2023-01-12T06:58:45.065Z,97388.28
2023-01-12T06:59:46.880Z,97393.31
2023-01-12T07:00:48.828Z,97389.88
2023-01-12T07:01:51.006Z,97389.53
2023-01-12T07:02:53.070Z,97385.31
2023-01-12T07:03:54.957Z,97386.59
2023-01-12T07:04:56.790Z,97387.56
2023-01-12T07:05:59.691Z,97390.16
2023-01-12T07:07:01.546Z,97388.38
2023-01-12T07:08:03.428Z,97395.66
2023-01-12T07:09:06.795Z,97401.66
2023-01-12T07:10:09.521Z,97392.94
2023-01-12T07:11:15.355Z,97390.19
2023-01-12T07:12:17.235Z,97393.31
2023-01-12T07:13:19.150Z,97397.63
2023-01-12T07:14:21.150Z,97398.97
2023-01-12T07:15:23.640Z,97394.44
2023-01-12T07:16:25.496Z,97398.66
2023-01-12T07:17:27.371Z,97395.94
2023-01-12T07:18:29.687Z,97401.41
2023-01-12T07:19:31.719Z,97400.88
2023-01-12T07:20:33.659Z,97399.56
2023-01-12T07:21:35.567Z,97400.53
2023-01-12T07:22:37.586Z,97404.72
2023-01-12T07:23:42.351Z,97402.81
2023-01-12T07:24:44.433Z,97395.88
2023-01-12T07:25:46.263Z,97401.72
2023-01-12T07:26:50.031Z,97401.84
2023-01-12T07:27:55.756Z,97398.63
2023-01-12T07:28:57.574Z,97395.72
2023-01-12T07:30:01.796Z,97402.53
2023-01-12T07:31:04.620Z,97405.63
2023-01-12T07:32:06.819Z,97401.63
2023-01-12T07:33:09.405Z,97393.41
2023-01-12T07:34:12.021Z,97394.72
2023-01-12T07:35:14.026Z,97392.66
2023-01-12T07:36:16.675Z,97386.22
2023-01-12T07:37:18.473Z,97394.91
2023-01-12T07:38:20.273Z,97385.22
2023-01-12T07:39:22.108Z,97389.47
2023-01-12T07:40:24.005Z,97402.00
2023-01-12T07:41:46.026Z,97397.97
2023-01-12T07:42:47.889Z,97387.13
2023-01-12T07:43:49.732Z,97390.34
2023-01-12T07:44:51.704Z,97397.16
2023-01-12T07:45:56.061Z,97404.75
2023-01-12T07:46:59.743Z,97396.84
2023-01-12T07:48:01.716Z,97399.78
2023-01-12T07:49:03.613Z,97392.53
2023-01-12T07:50:05.640Z,97408.69
2023-01-12T07:51:07.617Z,97409.34
2023-01-12T07:52:11.553Z,97404.19
2023-01-12T07:53:13.334Z,97398.22
2023-01-12T07:54:15.271Z,97396.28
2023-01-12T07:55:19.298Z,97389.97
2023-01-12T07:56:21.242Z,97386.44
2023-01-12T07:57:23.021Z,97393.06
2023-01-12T07:58:24.775Z,97391.47
2023-01-12T07:59:27.772Z,97395.66
2023-01-12T08:00:30.428Z,97399.38
2023-01-12T08:01:33.368Z,97390.16
2023-01-12T08:02:35.412Z,97396.94
2023-01-12T08:03:38.717Z,97391.47
2023-01-12T08:04:40.597Z,97392.78
2023-01-12T08:05:42.456Z,97389.88
2023-01-12T08:06:44.290Z,97392.16
2023-01-12T08:07:46.272Z,97395.25
2023-01-12T08:08:48.068Z,97393.16
2023-01-12T08:09:49.972Z,97401.09
2023-01-12T08:10:51.869Z,97400.91
2023-01-12T08:11:53.750Z,97402.53
2023-01-12T08:12:55.550Z,97393.16
2023-01-12T08:13:58.665Z,97396.41
2023-01-12T08:15:00.850Z,97391.06
2023-01-12T08:16:07.207Z,97394.16
2023-01-12T08:17:15.214Z,97389.16
2023-01-12T08:18:20.286Z,97395.44
2023-01-12T08:19:24.855Z,97396.56
2023-01-12T08:20:32.438Z,97397.66
2023-01-12T08:21:45.408Z,97390.75
2023-01-12T08:22:49.647Z,97399.97
2023-01-12T08:23:54.803Z,97400.09
2023-01-12T08:25:00.242Z,97397.66
2023-01-12T08:26:05.122Z,97398.00
2023-01-12T08:27:07.652Z,97403.31
2023-01-12T08:28:09.590Z,97395.38
2023-01-12T08:29:16.602Z,97401.00
2023-01-12T08:30:20.064Z,97397.75
2023-01-12T08:31:25.215Z,97403.41
2023-01-12T08:32:28.537Z,97393.72
2023-01-12T08:33:30.451Z,97400.22
2023-01-12T08:34:32.940Z,97394.59
2023-01-12T08:35:35.771Z,97393.63
2023-01-12T08:36:38.146Z,97391.53
2023-01-12T08:37:40.089Z,97389.91
2023-01-12T08:38:41.977Z,97399.97
2023-01-12T08:39:44.005Z,97406.44
2023-01-12T08:41:04.653Z,97404.00
2023-01-12T08:42:06.519Z,97402.53
2023-01-12T08:43:08.404Z,97404.66
2023-01-12T08:44:11.507Z,97404.03
2023-01-12T08:45:13.243Z,97399.66
2023-01-12T08:46:15.335Z,97407.28
2023-01-12T08:47:27.633Z,97407.44
2023-01-12T08:48:29.419Z,97408.25
2023-01-12T08:49:31.899Z,97410.38
2023-01-12T08:50:33.663Z,97403.91
2023-01-12T08:51:35.592Z,97412.19
2023-01-12T08:52:37.625Z,97399.91
2023-01-12T08:53:39.439Z,97400.41
2023-01-12T08:54:41.299Z,97405.91
2023-01-12T08:55:43.471Z,97410.75
2023-01-12T08:56:45.901Z,97403.78
2023-01-12T08:57:47.651Z,97409.75
2023-01-12T08:58:49.740Z,97405.88
2023-01-12T08:59:51.648Z,97410.75
2023-01-12T09:00:53.615Z,97407.53
2023-01-12T09:01:55.774Z,97409.00
2023-01-12T09:02:57.563Z,97413.03
2023-01-12T09:04:00.172Z,97406.25
2023-01-12T09:05:02.020Z,97408.22
2023-01-12T09:06:20.543Z,97407.91
2023-01-12T09:07:22.478Z,97407.44
2023-01-12T09:08:24.241Z,97409.03
2023-01-12T09:09:26.124Z,97407.91
2023-01-12T09:10:28.244Z,97422.16
2023-01-12T09:11:31.050Z,97415.69
2023-01-12T09:12:32.989Z,97417.84
2023-01-12T09:13:34.756Z,97418.31
2023-01-12T09:14:39.388Z,97418.00
2023-01-12T09:15:43.171Z,97417.19
2023-01-12T09:16:45.269Z,97407.63
2023-01-12T09:17:52.203Z,97416.84
2023-01-12T09:18:54.047Z,97412.50
2023-01-12T09:19:55.850Z,97413.31
2023-01-12T09:21:04.122Z,97412.81
2023-01-12T09:22:05.956Z,97413.31
2023-01-12T09:23:07.776Z,97423.81
2023-01-12T09:24:10.831Z,97423.47
2023-01-12T09:25:12.756Z,97421.53
2023-01-12T09:26:16.244Z,97419.94
2023-01-12T09:27:18.077Z,97421.06
2023-01-12T09:28:19.852Z,97416.38
2023-01-12T09:29:21.741Z,97421.09
2023-01-12T09:30:23.653Z,97431.00
2023-01-12T09:31:26.583Z,97427.13
2023-01-12T09:32:36.132Z,97426.81
2023-01-12T09:33:39.473Z,97421.94
2023-01-12T09:34:41.418Z,97427.13
2023-01-12T09:35:44.765Z,97424.38
2023-01-12T09:36:46.910Z,97425.81
2023-01-12T09:37:48.743Z,97427.59
2023-01-12T09:38:50.574Z,97412.06
2023-01-12T09:39:52.417Z,97416.25
2023-01-12T09:40:54.202Z,97411.25
2023-01-12T09:42:15.162Z,97410.94
2023-01-12T09:43:35.300Z,97411.44
2023-01-12T09:44:56.919Z,97409.47
2023-01-12T09:46:17.052Z,97406.91
2023-01-12T09:47:22.813Z,97409.00
2023-01-12T09:48:25.636Z,97406.09
2023-01-12T09:49:30.930Z,97411.28
2023-01-12T09:50:37.734Z,97404.16
2023-01-12T09:51:48.228Z,97405.75
2023-01-12T09:52:56.865Z,97400.25
2023-01-12T09:53:58.701Z,97404.47
2023-01-12T09:55:00.699Z,97409.34
2023-01-12T09:56:08.308Z,97401.06
2023-01-12T09:57:28.863Z,97402.84
2023-01-12T09:58:51.405Z,97400.25
2023-01-12T10:00:03.222Z,97396.03
2023-01-12T10:01:14.723Z,97407.06
2023-01-12T10:02:22.577Z,97394.91
2023-01-12T10:03:31.236Z,97391.19
2023-01-12T10:04:33.182Z,97390.06
2023-01-12T10:05:47.604Z,97389.91
2023-01-12T10:06:49.400Z,97394.94
2023-01-12T10:07:53.615Z,97391.50
2023-01-12T10:08:57.168Z,97387.94
2023-01-12T10:09:58.993Z,97393.63
2023-01-12T10:11:12.248Z,97388.09
2023-01-12T10:12:20.230Z,97386.00
2023-01-12T10:13:22.645Z,97387.59
2023-01-12T10:14:30.495Z,97391.19
2023-01-12T10:15:41.345Z,97383.06
2023-01-12T10:16:43.299Z,97381.13
2023-01-12T10:17:57.024Z,97381.78
2023-01-12T10:19:01.528Z,97376.13
2023-01-12T10:20:13.978Z,97369.47
2023-01-12T10:21:15.848Z,97362.34
2023-01-12T10:22:37.661Z,97361.19
2023-01-12T10:23:39.641Z,97367.19
2023-01-12T10:24:42.321Z,97362.00
2023-01-12T10:25:52.057Z,97369.63
2023-01-12T10:27:03.719Z,97359.88
2023-01-12T10:28:12.304Z,97349.34
2023-01-12T10:29:14.237Z,97349.16
2023-01-12T10:30:17.753Z,97345.47
2023-01-12T10:31:21.207Z,97341.88
2023-01-12T10:32:26.568Z,97342.34
2023-01-12T10:33:31.618Z,97334.41
2023-01-12T10:34:49.717Z,97334.72
2023-01-12T10:35:51.630Z,97330.16
2023-01-12T10:36:58.187Z,97322.88
2023-01-12T10:38:00.046Z,97335.81
2023-01-12T10:39:03.730Z,97325.28
2023-01-12T10:40:05.933Z,97327.38
2023-01-12T10:41:10.836Z,97328.19
2023-01-12T10:42:41.447Z,97323.97
2023-01-12T10:43:44.657Z,97331.25
2023-01-12T10:44:46.458Z,97324.09
2023-01-12T10:46:08.574Z,97328.16
2023-01-12T10:47:11.020Z,97321.34
2023-01-12T10:48:22.651Z,97314.38
2023-01-12T10:49:24.817Z,97322.63
2023-01-12T10:50:28.704Z,97311.25
2023-01-12T10:51:33.968Z,97312.25
2023-01-12T10:52:38.629Z,97310.47
2023-01-12T10:53:55.974Z,97308.66
2023-01-12T10:54:58.989Z,97313.84
2023-01-12T10:56:03.350Z,97316.28
2023-01-12T10:57:08.657Z,97309.94
2023-01-12T10:58:24.428Z,97308.19
2023-01-12T10:59:29.576Z,97306.38
2023-01-12T11:00:31.913Z,97308.81
2023-01-12T11:01:53.492Z,97302.47
2023-01-12T11:02:55.649Z,97302.50
2023-01-12T11:04:04.364Z,97304.78
2023-01-12T11:05:26.098Z,97298.66
2023-01-12T11:06:30.864Z,97299.13
2023-01-12T11:07:33.569Z,97290.81
2023-01-12T11:08:35.503Z,97290.81
2023-01-12T11:09:37.545Z,97287.22
2023-01-12T11:10:39.613Z,97290.81
2023-01-12T11:11:41.586Z,97287.41
2023-01-12T11:12:43.496Z,97280.28
2023-01-12T11:13:45.424Z,97283.03
2023-01-12T11:14:59.053Z,97287.22
2023-01-12T11:16:15.955Z,97279.44
2023-01-12T11:17:17.756Z,97277.31
2023-01-12T11:18:32.794Z,97268.09
2023-01-12T11:19:40.047Z,97262.28
2023-01-12T11:20:50.570Z,97263.72
2023-01-12T11:22:03.403Z,97261.28
2023-01-12T11:23:09.248Z,97248.94
2023-01-12T11:24:14.191Z,97259.16
2023-01-12T11:25:21.946Z,97257.38
2023-01-12T11:26:28.953Z,97253.34
2023-01-12T11:27:50.936Z,97252.53
2023-01-12T11:28:54.371Z,97242.78
2023-01-12T11:29:58.957Z,97243.59
2023-01-12T11:31:21.034Z,97252.66
2023-01-12T11:32:29.477Z,97245.16
2023-01-12T11:33:45.426Z,97250.63
2023-01-12T11:35:09.978Z,97253.06
2023-01-12T11:36:17.515Z,97244.75
2023-01-12T11:37:19.338Z,97233.25
2023-01-12T11:38:24.618Z,97238.06
2023-01-12T11:39:28.238Z,97234.50
2023-01-12T11:40:33.970Z,97237.09
2023-01-12T11:41:39.405Z,97235.31
2023-01-12T11:43:00.755Z,97229.31
2023-01-12T11:44:05.643Z,97224.75
2023-01-12T11:45:07.436Z,97223.75
2023-01-12T11:46:15.336Z,97223.59
2023-01-12T11:47:21.672Z,97228.63
2023-01-12T11:48:55.756Z,97225.19
2023-01-12T11:50:02.811Z,97215.81
2023-01-12T11:51:05.156Z,97216.59
2023-01-12T11:52:11.142Z,97213.22
2023-01-12T11:53:20.578Z,97214.81
2023-01-12T11:54:23.548Z,97209.63
2023-01-12T11:55:35.270Z,97218.22
2023-01-12T11:56:53.066Z,97212.69
2023-01-12T11:57:55.811Z,97205.53
2023-01-12T11:59:23.970Z,97206.50
2023-01-12T12:00:44.403Z,97196.75
2023-01-12T12:01:58.221Z,97198.19
2023-01-12T12:03:06.339Z,97196.41
2023-01-12T12:04:26.747Z,97188.59
2023-01-12T12:05:28.537Z,97185.03
2023-01-12T12:06:30.355Z,97182.28
2023-01-12T12:07:44.168Z,97182.78
2023-01-12T12:08:46.009Z,97179.56
2023-01-12T12:10:06.595Z,97180.19
2023-01-12T12:11:08.379Z,97181.81
2023-01-12T12:12:16.427Z,97175.00
2023-01-12T12:13:44.071Z,97183.16
2023-01-12T12:14:48.685Z,97168.53
2023-01-12T12:15:55.243Z,97167.75
2023-01-12T12:17:03.886Z,97166.09
2023-01-12T12:18:14.523Z,97162.72
2023-01-12T12:19:18.898Z,97163.50
2023-01-12T12:20:42.389Z,97164.69
2023-01-12T12:21:50.309Z,97153.31
2023-01-12T12:22:54.823Z,97163.41
2023-01-12T12:23:59.574Z,97160.19
2023-01-12T12:25:27.944Z,97157.59
2023-01-12T12:26:36.061Z,97149.16
2023-01-12T12:27:52.866Z,97155.00
2023-01-12T12:28:57.721Z,97154.38
2023-01-12T12:29:59.498Z,97155.34
2023-01-12T12:31:14.354Z,97157.31
2023-01-12T12:32:19.158Z,97156.31
2023-01-12T12:33:24.087Z,97157.13
2023-01-12T12:34:35.015Z,97162.94
2023-01-12T12:35:49.123Z,97159.09
2023-01-12T12:37:00.189Z,97156.69
2023-01-12T12:38:22.874Z,97157.50
2023-01-12T12:39:26.096Z,97154.25
2023-01-12T12:41:01.977Z,97154.44
2023-01-12T12:42:28.428Z,97146.66
2023-01-12T12:43:52.757Z,97148.44
2023-01-12T12:45:19.093Z,97139.66
2023-01-12T12:46:30.758Z,97142.25
2023-01-12T12:47:42.263Z,97131.44
2023-01-12T12:48:50.375Z,97129.97